sensor_id;sensor_type;location;lat;lon;timestamp;P1;durP1;ratioP1;P2;durP2;ratioP2
27543;SDS011;17996;51.056;3.656;2023-01-30T00:01:29;51.90;;;33.03;;
27543;SDS011;17996;51.056;3.656;2023-01-30T00:03:57;52.97;;;34.90;;
27543;SDS011;17996;51.056;3.656;2023-01-30T00:06:23;61.33;;;36.53;;
27543;SDS011;17996;51.056;3.656;2023-01-30T00:08:49;64.13;;;35.72;;
27543;SDS011;17996;51.056;3.656;2023-01-30T00:11:16;58.17;;;34.13;;
27543;SDS011;17996;51.056;3.656;2023-01-30T00:13:44;63.22;;;34.55;;
27543;SDS011;17996;51.056;3.656;2023-01-30T00:16:10;55.25;;;34.08;;
27543;SDS011;17996;51.056;3.656;2023-01-30T00:18:36;55.92;;;33.55;;
27543;SDS011;17996;51.056;3.656;2023-01-30T00:21:03;54.25;;;33.28;;
27543;SDS011;17996;51.056;3.656;2023-01-30T00:23:31;50.22;;;32.88;;
27543;SDS011;17996;51.056;3.656;2023-01-30T00:25:58;60.10;;;34.53;;
27543;SDS011;17996;51.056;3.656;2023-01-30T00:28:24;52.78;;;33.97;;
27543;SDS011;17996;51.056;3.656;2023-01-30T00:30:50;64.43;;;35.88;;
27543;SDS011;17996;51.056;3.656;2023-01-30T00:33:17;59.65;;;34.65;;
27543;SDS011;17996;51.056;3.656;2023-01-30T00:35:44;57.88;;;34.80;;
27543;SDS011;17996;51.056;3.656;2023-01-30T00:38:11;59.28;;;33.70;;
27543;SDS011;17996;51.056;3.656;2023-01-30T00:40:38;53.70;;;33.38;;
27543;SDS011;17996;51.056;3.656;2023-01-30T00:43:03;63.08;;;35.60;;
27543;SDS011;17996;51.056;3.656;2023-01-30T00:45:48;54.97;;;33.33;;
27543;SDS011;17996;51.056;3.656;2023-01-30T00:48:34;59.83;;;34.78;;
27543;SDS011;17996;51.056;3.656;2023-01-30T00:50:59;54.47;;;32.38;;
27543;SDS011;17996;51.056;3.656;2023-01-30T00:53:25;55.28;;;31.83;;
27543;SDS011;17996;51.056;3.656;2023-01-30T00:55:51;52.47;;;30.45;;
27543;SDS011;17996;51.056;3.656;2023-01-30T00:58:17;50.80;;;30.60;;
27543;SDS011;17996;51.056;3.656;2023-01-30T01:00:43;47.85;;;28.30;;
27543;SDS011;17996;51.056;3.656;2023-01-30T01:03:09;45.97;;;26.38;;
27543;SDS011;17996;51.056;3.656;2023-01-30T01:05:34;49.55;;;28.02;;
27543;SDS011;17996;51.056;3.656;2023-01-30T01:08:00;40.72;;;23.85;;
27543;SDS011;17996;51.056;3.656;2023-01-30T01:10:26;42.80;;;23.10;;
27543;SDS011;17996;51.056;3.656;2023-01-30T01:12:53;42.53;;;22.42;;
27543;SDS011;17996;51.056;3.656;2023-01-30T01:15:19;44.83;;;21.95;;
27543;SDS011;17996;51.056;3.656;2023-01-30T01:17:46;39.00;;;22.15;;
27543;SDS011;17996;51.056;3.656;2023-01-30T01:20:12;43.20;;;23.67;;
27543;SDS011;17996;51.056;3.656;2023-01-30T01:22:39;36.50;;;20.95;;
27543;SDS011;17996;51.056;3.656;2023-01-30T01:25:05;40.45;;;19.73;;
27543;SDS011;17996;51.056;3.656;2023-01-30T01:27:31;40.28;;;21.35;;
27543;SDS011;17996;51.056;3.656;2023-01-30T01:29:57;40.67;;;19.67;;
27543;SDS011;17996;51.056;3.656;2023-01-30T01:32:23;49.88;;;20.02;;
27543;SDS011;17996;51.056;3.656;2023-01-30T01:34:48;33.35;;;18.70;;
27543;SDS011;17996;51.056;3.656;2023-01-30T01:37:14;38.15;;;19.00;;
27543;SDS011;17996;51.056;3.656;2023-01-30T01:39:40;35.47;;;18.33;;
27543;SDS011;17996;51.056;3.656;2023-01-30T01:42:24;33.50;;;17.88;;
27543;SDS011;17996;51.056;3.656;2023-01-30T01:45:35;27.70;;;16.95;;
27543;SDS011;17996;51.056;3.656;2023-01-30T01:50:15;38.35;;;15.07;;
27543;SDS011;17996;51.056;3.656;2023-01-30T01:52:47;31.88;;;14.55;;
27543;SDS011;17996;51.056;3.656;2023-01-30T01:55:16;24.20;;;12.68;;
27543;SDS011;17996;51.056;3.656;2023-01-30T01:57:46;31.88;;;13.02;;
27543;SDS011;17996;51.056;3.656;2023-01-30T02:00:17;30.15;;;12.38;;
27543;SDS011;17996;51.056;3.656;2023-01-30T02:02:58;24.25;;;11.32;;
27543;SDS011;17996;51.056;3.656;2023-01-30T02:05:31;25.85;;;10.10;;
27543;SDS011;17996;51.056;3.656;2023-01-30T02:08:02;23.35;;;10.32;;
27543;SDS011;17996;51.056;3.656;2023-01-30T02:10:57;36.83;;;9.63;;
27543;SDS011;17996;51.056;3.656;2023-01-30T02:13:33;21.08;;;8.82;;
27543;SDS011;17996;51.056;3.656;2023-01-30T02:16:00;21.20;;;8.00;;
27543;SDS011;17996;51.056;3.656;2023-01-30T02:18:27;27.23;;;8.52;;
27543;SDS011;17996;51.056;3.656;2023-01-30T02:31:58;21.50;;;7.53;;
27543;SDS011;17996;51.056;3.656;2023-01-30T02:40:13;17.85;;;7.88;;
27543;SDS011;17996;51.056;3.656;2023-01-30T02:46:02;17.55;;;7.47;;
27543;SDS011;17996;51.056;3.656;2023-01-30T02:48:42;17.10;;;7.28;;
27543;SDS011;17996;51.056;3.656;2023-01-30T02:51:35;23.58;;;7.85;;
27543;SDS011;17996;51.056;3.656;2023-01-30T02:54:06;30.20;;;7.70;;
27543;SDS011;17996;51.056;3.656;2023-01-30T02:56:48;25.55;;;8.38;;
27543;SDS011;17996;51.056;3.656;2023-01-30T02:59:17;19.15;;;8.20;;
27543;SDS011;17996;51.056;3.656;2023-01-30T03:18:08;19.30;;;6.88;;
27543;SDS011;17996;51.056;3.656;2023-01-30T03:20:38;19.88;;;5.25;;
27543;SDS011;17996;51.056;3.656;2023-01-30T03:23:05;23.48;;;6.18;;
27543;SDS011;17996;51.056;3.656;2023-01-30T03:25:31;19.00;;;5.55;;
27543;SDS011;17996;51.056;3.656;2023-01-30T03:27:59;11.40;;;5.28;;
27543;SDS011;17996;51.056;3.656;2023-01-30T03:30:27;24.60;;;6.07;;
27543;SDS011;17996;51.056;3.656;2023-01-30T03:32:53;16.77;;;5.53;;
27543;SDS011;17996;51.056;3.656;2023-01-30T03:35:19;14.18;;;5.25;;
27543;SDS011;17996;51.056;3.656;2023-01-30T03:37:45;14.60;;;5.15;;
27543;SDS011;17996;51.056;3.656;2023-01-30T03:40:11;18.15;;;5.72;;
27543;SDS011;17996;51.056;3.656;2023-01-30T03:42:39;25.63;;;5.80;;
27543;SDS011;17996;51.056;3.656;2023-01-30T03:45:06;17.77;;;5.55;;
27543;SDS011;17996;51.056;3.656;2023-01-30T03:47:32;13.70;;;5.78;;
27543;SDS011;17996;51.056;3.656;2023-01-30T03:49:58;18.60;;;5.22;;
27543;SDS011;17996;51.056;3.656;2023-01-30T03:52:24;8.70;;;4.57;;
27543;SDS011;17996;51.056;3.656;2023-01-30T03:54:49;24.85;;;5.57;;
27543;SDS011;17996;51.056;3.656;2023-01-30T03:57:15;19.42;;;5.53;;
27543;SDS011;17996;51.056;3.656;2023-01-30T03:59:41;15.65;;;5.18;;
27543;SDS011;17996;51.056;3.656;2023-01-30T04:02:07;12.93;;;4.53;;
27543;SDS011;17996;51.056;3.656;2023-01-30T04:04:33;15.48;;;5.25;;
27543;SDS011;17996;51.056;3.656;2023-01-30T04:06:59;12.70;;;4.38;;
27543;SDS011;17996;51.056;3.656;2023-01-30T04:09:25;17.38;;;4.15;;
27543;SDS011;17996;51.056;3.656;2023-01-30T04:11:51;13.30;;;5.55;;
27543;SDS011;17996;51.056;3.656;2023-01-30T04:14:16;18.10;;;4.78;;
27543;SDS011;17996;51.056;3.656;2023-01-30T04:16:42;19.75;;;5.95;;
27543;SDS011;17996;51.056;3.656;2023-01-30T04:19:08;14.77;;;4.68;;
27543;SDS011;17996;51.056;3.656;2023-01-30T04:21:34;12.50;;;3.85;;
27543;SDS011;17996;51.056;3.656;2023-01-30T04:23:59;17.30;;;4.28;;
27543;SDS011;17996;51.056;3.656;2023-01-30T04:26:25;14.93;;;4.80;;
27543;SDS011;17996;51.056;3.656;2023-01-30T04:28:51;15.73;;;4.10;;
27543;SDS011;17996;51.056;3.656;2023-01-30T04:31:16;12.98;;;5.13;;
27543;SDS011;17996;51.056;3.656;2023-01-30T04:33:42;9.90;;;4.03;;
27543;SDS011;17996;51.056;3.656;2023-01-30T04:36:08;20.92;;;5.78;;
27543;SDS011;17996;51.056;3.656;2023-01-30T04:38:34;13.45;;;5.00;;
27543;SDS011;17996;51.056;3.656;2023-01-30T04:41:01;14.65;;;4.85;;
27543;SDS011;17996;51.056;3.656;2023-01-30T04:43:27;11.15;;;4.13;;
27543;SDS011;17996;51.056;3.656;2023-01-30T04:45:53;11.10;;;4.40;;
27543;SDS011;17996;51.056;3.656;2023-01-30T04:48:20;13.10;;;4.07;;
27543;SDS011;17996;51.056;3.656;2023-01-30T04:50:48;6.88;;;3.78;;
27543;SDS011;17996;51.056;3.656;2023-01-30T04:53:15;14.20;;;4.07;;
27543;SDS011;17996;51.056;3.656;2023-01-30T04:55:41;14.30;;;3.63;;
27543;SDS011;17996;51.056;3.656;2023-01-30T04:58:07;10.15;;;3.47;;
27543;SDS011;17996;51.056;3.656;2023-01-30T05:00:33;14.15;;;3.95;;
27543;SDS011;17996;51.056;3.656;2023-01-30T05:02:58;14.02;;;4.45;;
27543;SDS011;17996;51.056;3.656;2023-01-30T05:05:24;17.75;;;3.97;;
27543;SDS011;17996;51.056;3.656;2023-01-30T05:07:51;14.48;;;4.22;;
27543;SDS011;17996;51.056;3.656;2023-01-30T05:10:17;12.02;;;3.65;;
27543;SDS011;17996;51.056;3.656;2023-01-30T05:12:43;13.70;;;4.28;;
27543;SDS011;17996;51.056;3.656;2023-01-30T05:15:09;12.10;;;4.47;;
27543;SDS011;17996;51.056;3.656;2023-01-30T05:17:35;7.68;;;3.85;;
27543;SDS011;17996;51.056;3.656;2023-01-30T05:20:01;15.32;;;3.80;;
27543;SDS011;17996;51.056;3.656;2023-01-30T05:22:27;14.50;;;4.40;;
27543;SDS011;17996;51.056;3.656;2023-01-30T05:24:53;15.27;;;4.00;;
27543;SDS011;17996;51.056;3.656;2023-01-30T05:27:19;15.95;;;5.07;;
27543;SDS011;17996;51.056;3.656;2023-01-30T05:29:44;15.13;;;4.53;;
27543;SDS011;17996;51.056;3.656;2023-01-30T05:32:14;19.60;;;4.25;;
27543;SDS011;17996;51.056;3.656;2023-01-30T05:34:40;15.98;;;4.90;;
27543;SDS011;17996;51.056;3.656;2023-01-30T05:37:06;15.38;;;4.80;;
27543;SDS011;17996;51.056;3.656;2023-01-30T05:39:32;14.20;;;4.53;;
27543;SDS011;17996;51.056;3.656;2023-01-30T05:41:57;12.88;;;4.55;;
27543;SDS011;17996;51.056;3.656;2023-01-30T05:44:23;13.25;;;4.90;;
27543;SDS011;17996;51.056;3.656;2023-01-30T05:46:49;14.50;;;5.15;;
27543;SDS011;17996;51.056;3.656;2023-01-30T05:49:15;13.77;;;5.03;;
27543;SDS011;17996;51.056;3.656;2023-01-30T05:51:40;14.75;;;5.72;;
27543;SDS011;17996;51.056;3.656;2023-01-30T05:54:06;10.80;;;5.00;;
27543;SDS011;17996;51.056;3.656;2023-01-30T05:56:32;16.33;;;5.47;;
27543;SDS011;17996;51.056;3.656;2023-01-30T05:58:58;13.25;;;5.45;;
27543;SDS011;17996;51.056;3.656;2023-01-30T06:01:25;17.42;;;5.57;;
27543;SDS011;17996;51.056;3.656;2023-01-30T06:03:51;27.63;;;7.07;;
27543;SDS011;17996;51.056;3.656;2023-01-30T06:06:18;17.48;;;5.68;;
27543;SDS011;17996;51.056;3.656;2023-01-30T06:08:44;12.75;;;4.85;;
27543;SDS011;17996;51.056;3.656;2023-01-30T06:11:11;23.05;;;5.47;;
27543;SDS011;17996;51.056;3.656;2023-01-30T06:13:38;18.30;;;5.63;;
27543;SDS011;17996;51.056;3.656;2023-01-30T06:16:06;19.52;;;5.10;;
27543;SDS011;17996;51.056;3.656;2023-01-30T06:18:32;19.55;;;5.28;;
27543;SDS011;17996;51.056;3.656;2023-01-30T06:20:58;22.02;;;6.40;;
27543;SDS011;17996;51.056;3.656;2023-01-30T06:23:24;17.30;;;5.55;;
27543;SDS011;17996;51.056;3.656;2023-01-30T06:25:51;19.10;;;6.30;;
27543;SDS011;17996;51.056;3.656;2023-01-30T06:28:17;19.70;;;5.95;;
27543;SDS011;17996;51.056;3.656;2023-01-30T06:30:44;20.15;;;5.10;;
27543;SDS011;17996;51.056;3.656;2023-01-30T06:33:10;17.40;;;6.32;;
27543;SDS011;17996;51.056;3.656;2023-01-30T06:35:36;26.00;;;5.93;;
27543;SDS011;17996;51.056;3.656;2023-01-30T06:38:03;21.60;;;5.65;;
27543;SDS011;17996;51.056;3.656;2023-01-30T06:40:29;21.40;;;6.45;;
27543;SDS011;17996;51.056;3.656;2023-01-30T06:42:55;20.95;;;4.68;;
27543;SDS011;17996;51.056;3.656;2023-01-30T06:45:20;34.17;;;6.93;;
27543;SDS011;17996;51.056;3.656;2023-01-30T06:47:50;22.58;;;5.65;;
27543;SDS011;17996;51.056;3.656;2023-01-30T06:50:17;23.27;;;5.25;;
27543;SDS011;17996;51.056;3.656;2023-01-30T06:52:44;23.20;;;5.47;;
27543;SDS011;17996;51.056;3.656;2023-01-30T06:55:13;19.25;;;5.50;;
27543;SDS011;17996;51.056;3.656;2023-01-30T07:00:07;19.92;;;5.70;;
27543;SDS011;17996;51.056;3.656;2023-01-30T07:02:35;18.73;;;5.05;;
27543;SDS011;17996;51.056;3.656;2023-01-30T07:05:01;18.77;;;5.10;;
27543;SDS011;17996;51.056;3.656;2023-01-30T07:07:28;33.38;;;5.70;;
27543;SDS011;17996;51.056;3.656;2023-01-30T07:09:54;18.90;;;5.35;;
27543;SDS011;17996;51.056;3.656;2023-01-30T07:12:20;23.75;;;5.13;;
27543;SDS011;17996;51.056;3.656;2023-01-30T07:14:45;21.58;;;5.40;;
27543;SDS011;17996;51.056;3.656;2023-01-30T07:17:11;27.70;;;5.72;;
27543;SDS011;17996;51.056;3.656;2023-01-30T07:19:37;15.98;;;4.63;;
27543;SDS011;17996;51.056;3.656;2023-01-30T07:22:03;19.45;;;5.03;;
27543;SDS011;17996;51.056;3.656;2023-01-30T07:24:29;18.67;;;4.18;;
27543;SDS011;17996;51.056;3.656;2023-01-30T07:26:55;23.98;;;4.28;;
27543;SDS011;17996;51.056;3.656;2023-01-30T07:29:20;20.63;;;5.55;;
27543;SDS011;17996;51.056;3.656;2023-01-30T07:31:46;21.83;;;3.83;;
27543;SDS011;17996;51.056;3.656;2023-01-30T07:34:12;20.05;;;4.32;;
27543;SDS011;17996;51.056;3.656;2023-01-30T07:36:37;23.10;;;5.20;;
27543;SDS011;17996;51.056;3.656;2023-01-30T07:39:04;21.48;;;4.45;;
27543;SDS011;17996;51.056;3.656;2023-01-30T07:41:29;18.73;;;4.53;;
27543;SDS011;17996;51.056;3.656;2023-01-30T07:43:55;20.75;;;3.58;;
27543;SDS011;17996;51.056;3.656;2023-01-30T07:46:21;20.65;;;3.97;;
27543;SDS011;17996;51.056;3.656;2023-01-30T07:48:47;29.52;;;4.45;;
27543;SDS011;17996;51.056;3.656;2023-01-30T07:51:12;31.33;;;4.10;;
27543;SDS011;17996;51.056;3.656;2023-01-30T07:53:38;21.23;;;4.18;;
27543;SDS011;17996;51.056;3.656;2023-01-30T07:56:07;14.63;;;2.95;;
27543;SDS011;17996;51.056;3.656;2023-01-30T07:58:38;24.98;;;3.80;;
27543;SDS011;17996;51.056;3.656;2023-01-30T08:01:04;18.55;;;3.92;;
27543;SDS011;17996;51.056;3.656;2023-01-30T08:03:30;21.10;;;3.40;;
27543;SDS011;17996;51.056;3.656;2023-01-30T08:05:56;24.23;;;3.90;;
27543;SDS011;17996;51.056;3.656;2023-01-30T08:08:21;19.77;;;4.10;;
27543;SDS011;17996;51.056;3.656;2023-01-30T08:10:47;26.63;;;4.57;;
27543;SDS011;17996;51.056;3.656;2023-01-30T08:13:13;20.13;;;4.43;;
27543;SDS011;17996;51.056;3.656;2023-01-30T08:15:39;21.33;;;4.30;;
27543;SDS011;17996;51.056;3.656;2023-01-30T08:18:05;27.95;;;4.70;;
27543;SDS011;17996;51.056;3.656;2023-01-30T08:20:33;19.65;;;4.07;;
27543;SDS011;17996;51.056;3.656;2023-01-30T08:22:59;27.40;;;5.72;;
27543;SDS011;17996;51.056;3.656;2023-01-30T08:25:26;25.45;;;4.15;;
27543;SDS011;17996;51.056;3.656;2023-01-30T08:27:52;18.77;;;3.58;;
27543;SDS011;17996;51.056;3.656;2023-01-30T08:30:19;21.27;;;4.22;;
27543;SDS011;17996;51.056;3.656;2023-01-30T08:32:45;19.33;;;3.90;;
27543;SDS011;17996;51.056;3.656;2023-01-30T08:35:11;27.65;;;4.88;;
27543;SDS011;17996;51.056;3.656;2023-01-30T08:37:40;21.20;;;3.65;;
27543;SDS011;17996;51.056;3.656;2023-01-30T08:42:32;17.60;;;3.65;;
27543;SDS011;17996;51.056;3.656;2023-01-30T08:44:58;29.33;;;4.95;;
27543;SDS011;17996;51.056;3.656;2023-01-30T08:47:24;20.77;;;4.28;;
27543;SDS011;17996;51.056;3.656;2023-01-30T08:49:49;21.58;;;3.53;;
27543;SDS011;17996;51.056;3.656;2023-01-30T08:52:17;18.55;;;4.07;;
27543;SDS011;17996;51.056;3.656;2023-01-30T08:54:43;27.15;;;4.28;;
27543;SDS011;17996;51.056;3.656;2023-01-30T08:57:08;33.88;;;6.07;;
27543;SDS011;17996;51.056;3.656;2023-01-30T08:59:34;30.30;;;4.90;;
27543;SDS011;17996;51.056;3.656;2023-01-30T09:02:00;33.50;;;4.78;;
27543;SDS011;17996;51.056;3.656;2023-01-30T09:04:28;31.63;;;4.78;;
27543;SDS011;17996;51.056;3.656;2023-01-30T09:06:54;26.13;;;4.78;;
27543;SDS011;17996;51.056;3.656;2023-01-30T09:09:20;23.83;;;4.05;;
27543;SDS011;17996;51.056;3.656;2023-01-30T09:11:45;25.85;;;5.68;;
27543;SDS011;17996;51.056;3.656;2023-01-30T09:14:14;20.33;;;3.90;;
27543;SDS011;17996;51.056;3.656;2023-01-30T09:16:47;33.40;;;5.43;;
27543;SDS011;17996;51.056;3.656;2023-01-30T09:19:22;33.38;;;6.38;;
27543;SDS011;17996;51.056;3.656;2023-01-30T09:21:49;27.15;;;4.15;;
27543;SDS011;17996;51.056;3.656;2023-01-30T09:24:16;40.33;;;4.85;;
27543;SDS011;17996;51.056;3.656;2023-01-30T09:26:42;27.20;;;5.03;;
27543;SDS011;17996;51.056;3.656;2023-01-30T09:29:11;23.58;;;5.05;;
27543;SDS011;17996;51.056;3.656;2023-01-30T09:31:38;20.98;;;4.50;;
27543;SDS011;17996;51.056;3.656;2023-01-30T09:34:04;28.77;;;4.45;;
27543;SDS011;17996;51.056;3.656;2023-01-30T09:36:30;18.90;;;4.53;;
27543;SDS011;17996;51.056;3.656;2023-01-30T09:38:56;34.97;;;5.18;;
27543;SDS011;17996;51.056;3.656;2023-01-30T09:41:38;27.50;;;4.18;;
27543;SDS011;17996;51.056;3.656;2023-01-30T09:49:42;29.27;;;5.35;;
27543;SDS011;17996;51.056;3.656;2023-01-30T09:52:16;31.33;;;5.07;;
27543;SDS011;17996;51.056;3.656;2023-01-30T09:55:14;25.10;;;4.57;;
27543;SDS011;17996;51.056;3.656;2023-01-30T09:57:54;27.45;;;4.72;;
27543;SDS011;17996;51.056;3.656;2023-01-30T10:00:27;32.30;;;6.53;;
27543;SDS011;17996;51.056;3.656;2023-01-30T10:03:12;25.02;;;5.18;;
27543;SDS011;17996;51.056;3.656;2023-01-30T10:05:51;23.33;;;3.95;;
27543;SDS011;17996;51.056;3.656;2023-01-30T10:20:15;24.88;;;4.90;;
27543;SDS011;17996;51.056;3.656;2023-01-30T10:23:03;35.15;;;6.30;;
27543;SDS011;17996;51.056;3.656;2023-01-30T10:25:51;29.25;;;4.38;;
27543;SDS011;17996;51.056;3.656;2023-01-30T10:28:33;23.50;;;3.95;;
27543;SDS011;17996;51.056;3.656;2023-01-30T10:31:04;17.17;;;2.85;;
27543;SDS011;17996;51.056;3.656;2023-01-30T10:33:34;29.50;;;5.30;;
27543;SDS011;17996;51.056;3.656;2023-01-30T10:36:10;29.58;;;3.70;;
27543;SDS011;17996;51.056;3.656;2023-01-30T10:44:00;37.25;;;4.13;;
27543;SDS011;17996;51.056;3.656;2023-01-30T10:46:32;27.63;;;4.68;;
27543;SDS011;17996;51.056;3.656;2023-01-30T10:49:43;31.05;;;5.00;;
27543;SDS011;17996;51.056;3.656;2023-01-30T10:52:25;22.55;;;3.72;;
27543;SDS011;17996;51.056;3.656;2023-01-30T11:03:08;26.92;;;4.55;;
27543;SDS011;17996;51.056;3.656;2023-01-30T11:05:55;21.08;;;4.22;;
27543;SDS011;17996;51.056;3.656;2023-01-30T11:08:33;28.20;;;4.50;;
27543;SDS011;17996;51.056;3.656;2023-01-30T11:11:02;30.83;;;5.45;;
27543;SDS011;17996;51.056;3.656;2023-01-30T11:13:48;21.20;;;4.88;;
27543;SDS011;17996;51.056;3.656;2023-01-30T11:16:14;32.47;;;5.45;;
27543;SDS011;17996;51.056;3.656;2023-01-30T11:18:47;33.67;;;5.20;;
27543;SDS011;17996;51.056;3.656;2023-01-30T11:21:22;25.80;;;4.43;;
27543;SDS011;17996;51.056;3.656;2023-01-30T11:23:55;27.00;;;4.88;;
27543;SDS011;17996;51.056;3.656;2023-01-30T11:26:34;29.10;;;4.65;;
27543;SDS011;17996;51.056;3.656;2023-01-30T11:32:02;24.88;;;4.15;;
27543;SDS011;17996;51.056;3.656;2023-01-30T11:35:00;28.25;;;4.65;;
27543;SDS011;17996;51.056;3.656;2023-01-30T11:37:33;22.48;;;4.05;;
27543;SDS011;17996;51.056;3.656;2023-01-30T11:40:23;30.17;;;5.50;;
27543;SDS011;17996;51.056;3.656;2023-01-30T11:42:50;30.45;;;5.55;;
27543;SDS011;17996;51.056;3.656;2023-01-30T11:45:17;20.42;;;4.18;;
27543;SDS011;17996;51.056;3.656;2023-01-30T11:47:57;23.85;;;4.53;;
27543;SDS011;17996;51.056;3.656;2023-01-30T11:50:38;36.65;;;4.50;;
27543;SDS011;17996;51.056;3.656;2023-01-30T11:53:14;26.27;;;4.10;;
27543;SDS011;17996;51.056;3.656;2023-01-30T11:55:44;24.23;;;4.60;;
27543;SDS011;17996;51.056;3.656;2023-01-30T11:58:11;23.63;;;5.15;;
27543;SDS011;17996;51.056;3.656;2023-01-30T12:00:39;35.28;;;4.28;;
27543;SDS011;17996;51.056;3.656;2023-01-30T12:03:10;19.93;;;3.33;;
27543;SDS011;17996;51.056;3.656;2023-01-30T12:05:40;23.05;;;4.45;;
27543;SDS011;17996;51.056;3.656;2023-01-30T12:10:56;25.65;;;5.57;;
27543;SDS011;17996;51.056;3.656;2023-01-30T12:19:06;24.67;;;4.13;;
27543;SDS011;17996;51.056;3.656;2023-01-30T12:21:48;21.42;;;3.90;;
27543;SDS011;17996;51.056;3.656;2023-01-30T12:30:20;24.85;;;4.97;;
27543;SDS011;17996;51.056;3.656;2023-01-30T12:33:08;23.88;;;4.07;;
27543;SDS011;17996;51.056;3.656;2023-01-30T12:35:40;24.27;;;4.47;;
27543;SDS011;17996;51.056;3.656;2023-01-30T12:41:34;31.83;;;4.18;;
27543;SDS011;17996;51.056;3.656;2023-01-30T12:44:15;31.15;;;4.95;;
27543;SDS011;17996;51.056;3.656;2023-01-30T12:46:47;29.10;;;4.50;;
27543;SDS011;17996;51.056;3.656;2023-01-30T12:58:58;31.73;;;3.92;;
27543;SDS011;17996;51.056;3.656;2023-01-30T13:15:21;26.10;;;4.10;;
27543;SDS011;17996;51.056;3.656;2023-01-30T13:23:26;22.70;;;5.22;;
27543;SDS011;17996;51.056;3.656;2023-01-30T13:26:21;27.25;;;5.82;;
27543;SDS011;17996;51.056;3.656;2023-01-30T13:28:55;32.60;;;5.05;;
27543;SDS011;17996;51.056;3.656;2023-01-30T13:31:25;30.88;;;5.00;;
27543;SDS011;17996;51.056;3.656;2023-01-30T13:34:04;31.77;;;4.50;;
27543;SDS011;17996;51.056;3.656;2023-01-30T13:36:55;19.80;;;3.95;;
27543;SDS011;17996;51.056;3.656;2023-01-30T13:42:01;29.88;;;5.25;;
27543;SDS011;17996;51.056;3.656;2023-01-30T13:44:35;31.85;;;5.47;;
27543;SDS011;17996;51.056;3.656;2023-01-30T14:00:39;26.85;;;6.25;;
27543;SDS011;17996;51.056;3.656;2023-01-30T14:03:23;33.47;;;5.65;;
27543;SDS011;17996;51.056;3.656;2023-01-30T14:08:25;33.35;;;5.82;;
27543;SDS011;17996;51.056;3.656;2023-01-30T14:10:53;23.25;;;5.50;;
27543;SDS011;17996;51.056;3.656;2023-01-30T14:13:20;27.27;;;4.32;;
27543;SDS011;17996;51.056;3.656;2023-01-30T14:15:54;43.60;;;5.25;;
27543;SDS011;17996;51.056;3.656;2023-01-30T14:18:31;38.45;;;5.53;;
27543;SDS011;17996;51.056;3.656;2023-01-30T14:23:41;31.17;;;5.03;;
27543;SDS011;17996;51.056;3.656;2023-01-30T14:34:46;33.50;;;4.65;;
27543;SDS011;17996;51.056;3.656;2023-01-30T14:37:28;29.88;;;4.45;;
27543;SDS011;17996;51.056;3.656;2023-01-30T14:40:25;36.90;;;5.53;;
27543;SDS011;17996;51.056;3.656;2023-01-30T14:53:59;24.08;;;4.20;;
27543;SDS011;17996;51.056;3.656;2023-01-30T15:07:04;32.03;;;5.45;;
27543;SDS011;17996;51.056;3.656;2023-01-30T15:09:34;21.83;;;4.25;;
27543;SDS011;17996;51.056;3.656;2023-01-30T15:14:53;28.55;;;5.18;;
27543;SDS011;17996;51.056;3.656;2023-01-30T15:22:30;31.63;;;4.22;;
27543;SDS011;17996;51.056;3.656;2023-01-30T15:30:19;30.83;;;4.72;;
27543;SDS011;17996;51.056;3.656;2023-01-30T15:32:47;27.70;;;5.10;;
27543;SDS011;17996;51.056;3.656;2023-01-30T15:37:49;29.52;;;5.03;;
27543;SDS011;17996;51.056;3.656;2023-01-30T15:40:21;30.80;;;4.78;;
27543;SDS011;17996;51.056;3.656;2023-01-30T15:42:55;33.47;;;5.90;;
27543;SDS011;17996;51.056;3.656;2023-01-30T15:48:36;25.27;;;5.07;;
27543;SDS011;17996;51.056;3.656;2023-01-30T15:51:26;27.20;;;4.40;;
27543;SDS011;17996;51.056;3.656;2023-01-30T15:53:55;33.60;;;5.78;;
27543;SDS011;17996;51.056;3.656;2023-01-30T15:56:23;24.73;;;4.35;;
27543;SDS011;17996;51.056;3.656;2023-01-30T15:58:51;33.38;;;5.13;;
27543;SDS011;17996;51.056;3.656;2023-01-30T16:01:22;33.33;;;5.32;;
27543;SDS011;17996;51.056;3.656;2023-01-30T16:03:48;33.85;;;5.53;;
27543;SDS011;17996;51.056;3.656;2023-01-30T16:08:58;34.38;;;5.65;;
27543;SDS011;17996;51.056;3.656;2023-01-30T16:11:36;30.13;;;6.13;;
27543;SDS011;17996;51.056;3.656;2023-01-30T16:14:04;30.55;;;5.20;;
27543;SDS011;17996;51.056;3.656;2023-01-30T16:16:35;22.52;;;5.47;;
27543;SDS011;17996;51.056;3.656;2023-01-30T16:19:02;35.28;;;5.60;;
27543;SDS011;17996;51.056;3.656;2023-01-30T16:21:34;24.38;;;5.25;;
27543;SDS011;17996;51.056;3.656;2023-01-30T16:26:40;27.48;;;6.53;;
27543;SDS011;17996;51.056;3.656;2023-01-30T16:29:20;30.08;;;5.88;;
27543;SDS011;17996;51.056;3.656;2023-01-30T16:31:48;47.78;;;6.55;;
27543;SDS011;17996;51.056;3.656;2023-01-30T16:34:24;28.07;;;6.63;;
27543;SDS011;17996;51.056;3.656;2023-01-30T16:36:58;41.15;;;8.18;;
27543;SDS011;17996;51.056;3.656;2023-01-30T16:40:00;31.80;;;6.45;;
27543;SDS011;17996;51.056;3.656;2023-01-30T16:42:37;28.70;;;5.80;;
27543;SDS011;17996;51.056;3.656;2023-01-30T16:45:19;28.00;;;5.95;;
27543;SDS011;17996;51.056;3.656;2023-01-30T16:53:25;30.95;;;6.03;;
27543;SDS011;17996;51.056;3.656;2023-01-30T16:56:01;37.73;;;7.40;;
27543;SDS011;17996;51.056;3.656;2023-01-30T16:58:34;32.97;;;6.28;;
27543;SDS011;17996;51.056;3.656;2023-01-30T17:01:05;33.67;;;6.13;;
27543;SDS011;17996;51.056;3.656;2023-01-30T17:03:35;43.22;;;6.60;;
27543;SDS011;17996;51.056;3.656;2023-01-30T17:06:06;29.20;;;5.68;;
27543;SDS011;17996;51.056;3.656;2023-01-30T17:08:56;33.05;;;6.47;;
27543;SDS011;17996;51.056;3.656;2023-01-30T17:11:38;26.23;;;6.07;;
27543;SDS011;17996;51.056;3.656;2023-01-30T17:14:09;32.58;;;6.40;;
27543;SDS011;17996;51.056;3.656;2023-01-30T17:16:38;34.88;;;7.07;;
27543;SDS011;17996;51.056;3.656;2023-01-30T17:19:04;35.95;;;7.68;;
27543;SDS011;17996;51.056;3.656;2023-01-30T17:21:33;27.63;;;6.60;;
27543;SDS011;17996;51.056;3.656;2023-01-30T17:24:12;38.05;;;7.40;;
27543;SDS011;17996;51.056;3.656;2023-01-30T17:29:08;30.63;;;7.75;;
27543;SDS011;17996;51.056;3.656;2023-01-30T17:31:36;35.80;;;8.23;;
27543;SDS011;17996;51.056;3.656;2023-01-30T17:34:02;27.55;;;6.82;;
27543;SDS011;17996;51.056;3.656;2023-01-30T17:36:28;40.55;;;7.10;;
27543;SDS011;17996;51.056;3.656;2023-01-30T17:38:55;43.63;;;7.15;;
27543;SDS011;17996;51.056;3.656;2023-01-30T17:41:23;36.65;;;7.63;;
27543;SDS011;17996;51.056;3.656;2023-01-30T17:43:52;52.17;;;9.48;;
27543;SDS011;17996;51.056;3.656;2023-01-30T17:46:18;44.17;;;9.65;;
27543;SDS011;17996;51.056;3.656;2023-01-30T17:48:47;41.75;;;8.63;;
27543;SDS011;17996;51.056;3.656;2023-01-30T17:51:13;37.40;;;8.55;;
27543;SDS011;17996;51.056;3.656;2023-01-30T17:53:39;35.42;;;7.85;;
27543;SDS011;17996;51.056;3.656;2023-01-30T17:56:09;41.22;;;9.10;;
27543;SDS011;17996;51.056;3.656;2023-01-30T17:58:43;47.60;;;8.57;;
27543;SDS011;17996;51.056;3.656;2023-01-30T18:01:09;37.72;;;8.13;;
27543;SDS011;17996;51.056;3.656;2023-01-30T18:03:36;39.92;;;7.75;;
27543;SDS011;17996;51.056;3.656;2023-01-30T18:06:01;43.20;;;9.07;;
27543;SDS011;17996;51.056;3.656;2023-01-30T18:08:27;36.50;;;8.52;;
27543;SDS011;17996;51.056;3.656;2023-01-30T18:10:52;31.35;;;7.05;;
27543;SDS011;17996;51.056;3.656;2023-01-30T18:13:18;29.10;;;7.40;;
27543;SDS011;17996;51.056;3.656;2023-01-30T18:15:44;37.45;;;7.95;;
27543;SDS011;17996;51.056;3.656;2023-01-30T18:18:10;42.25;;;8.07;;